createdAt,value
2023-01-15T00:01:44.102Z,100
2023-01-15T00:16:12.228Z,100
2023-01-15T00:30:56.004Z,100
2023-01-15T00:45:19.951Z,100
2023-01-15T00:59:50.795Z,100
2023-01-15T01:14:21.915Z,100
2023-01-15T01:28:53.077Z,100
2023-01-15T01:43:24.245Z,100
2023-01-15T01:57:55.697Z,100
2023-01-15T02:12:25.718Z,100
2023-01-15T02:26:55.562Z,100
2023-01-15T02:41:26.123Z,100
2023-01-15T02:55:57.513Z,100
2023-01-15T03:10:28.756Z,100
2023-01-15T03:24:58.157Z,100
2023-01-15T03:39:28.668Z,100
2023-01-15T03:53:59.408Z,100
2023-01-15T04:08:28.371Z,100
2023-01-15T04:22:58.877Z,100
2023-01-15T04:37:31.756Z,100
2023-01-15T04:52:03.042Z,100
2023-01-15T05:06:34.182Z,100
2023-01-15T05:21:04.878Z,100
2023-01-15T05:35:36.150Z,100
2023-01-15T05:50:05.254Z,100
2023-01-15T06:04:35.991Z,100
2023-01-15T06:19:09.401Z,100
2023-01-15T06:33:40.040Z,99.4
2023-01-15T06:48:09.176Z,96.1
2023-01-15T07:02:40.233Z,97
2023-01-15T07:17:11.555Z,98.7
2023-01-15T07:31:43.072Z,100
2023-01-15T07:46:13.569Z,100
2023-01-15T08:00:57.371Z,100
2023-01-15T08:15:21.384Z,100
2023-01-15T08:29:51.440Z,100
2023-01-15T08:44:22.330Z,100
2023-01-15T08:58:54.856Z,97.8
2023-01-15T09:13:25.817Z,96.4
2023-01-15T09:27:55.176Z,100
2023-01-15T09:42:24.528Z,100
2023-01-15T09:56:54.376Z,100
2023-01-15T10:11:23.912Z,100
2023-01-15T10:25:55.192Z,100
2023-01-15T10:40:27.768Z,100
2023-01-15T10:55:00.515Z,100
2023-01-15T11:09:32.280Z,96.8
2023-01-15T11:24:03.521Z,92.1
2023-01-15T11:38:35.818Z,85.9
2023-01-15T11:53:06.620Z,85.2
2023-01-15T12:07:37.842Z,80.5
2023-01-15T12:22:10.192Z,79.2
2023-01-15T12:36:41.342Z,80.7
2023-01-15T12:51:12.168Z,79.5
2023-01-15T13:05:43.058Z,80.4
2023-01-15T13:20:14.780Z,79.9
2023-01-15T13:34:45.595Z,79.5
2023-01-15T13:49:17.403Z,79.1
2023-01-15T14:03:49.694Z,79
2023-01-15T14:18:18.635Z,76.7
2023-01-15T14:32:51.313Z,76.5
2023-01-15T14:47:23.130Z,75.3
2023-01-15T15:01:55.060Z,75.5
2023-01-15T15:16:26.163Z,74.9
2023-01-15T15:30:57.083Z,75.2
2023-01-15T15:45:27.588Z,77.5
2023-01-15T15:59:58.841Z,78.6
2023-01-15T16:14:31.635Z,77.8
2023-01-15T16:29:00.922Z,78
2023-01-15T16:43:31.506Z,77
2023-01-15T16:58:02.847Z,76.9
2023-01-15T17:12:32.333Z,78.1
2023-01-15T17:27:03.809Z,77
2023-01-15T17:41:34.147Z,78
2023-01-15T17:56:05.410Z,78.9
2023-01-15T18:10:36.819Z,79.9
2023-01-15T18:25:06.032Z,81.2
2023-01-15T18:39:35.820Z,85.1
2023-01-15T18:54:06.248Z,86.5
2023-01-15T19:08:36.693Z,86.1
2023-01-15T19:23:06.356Z,86.8
2023-01-15T19:37:36.473Z,85.8
2023-01-15T19:52:07.473Z,86.3
2023-01-15T20:06:38.808Z,86.4
2023-01-15T20:21:12.225Z,87.2
2023-01-15T20:35:43.424Z,87
2023-01-15T20:50:16.038Z,86.6
2023-01-15T21:04:45.271Z,86
2023-01-15T21:19:17.243Z,86.4
2023-01-15T21:33:49.821Z,85.6
2023-01-15T21:48:21.067Z,84.6
2023-01-15T22:02:51.679Z,88.2
2023-01-15T22:17:22.059Z,94.1
2023-01-15T22:31:51.606Z,99.5
2023-01-15T22:46:23.652Z,100
2023-01-15T23:00:54.271Z,100
2023-01-15T23:15:25.997Z,100
2023-01-15T23:29:57.111Z,100
2023-01-15T23:44:28.346Z,98.1
2023-01-15T23:58:58.885Z,99.7
